Time;durP1;ratioP1;P1;durP2;ratioP2;P2;SDS_P1;SDS_P2;PMS_P1;PMS_P2;Temp;Humidity;BMP_temperature;BMP_pressure;BME280_temperature;BME280_humidity;BME280_pressure;Samples;Min_cycle;Max_cycle;Signal;HPM_P1;HPM_P2
2022/12/07 00:02:41;;;;;;;11.75;8.60;;;5.00;99.90;;;;;;5054561;28;20209;-75
2022/12/07 00:05:27;;;;;;;12.40;8.95;;;4.80;99.90;;;;;;5059191;28;20647;-77
2022/12/07 00:08:13;;;;;;;16.73;9.38;;;4.80;99.90;;;;;;5060828;28;20212;-77
2022/12/07 00:11:03;;;;;;;10.65;8.05;;;4.90;99.90;;;;;;5062040;28;20224;-77
2022/12/07 00:13:53;;;;;;;13.25;8.90;;;4.90;99.90;;;;;;5058430;28;20246;-78
2022/12/07 00:16:38;;;;;;;15.95;9.30;;;4.80;99.90;;;;;;5059147;28;20197;-76
2022/12/07 00:19:24;;;;;;;14.30;8.95;;;4.90;99.90;;;;;;5062257;28;20248;-75
2022/12/07 00:22:10;;;;;;;12.20;8.85;;;4.90;99.90;;;;;;5061970;28;20491;-76
2022/12/07 00:24:55;;;;;;;11.70;7.95;;;4.90;99.90;;;;;;5056492;28;20224;-77
2022/12/07 00:27:42;;;;;;;13.07;8.45;;;4.90;99.90;;;;;;5061624;28;20261;-76
2022/12/07 00:30:28;;;;;;;11.20;8.10;;;4.90;99.90;;;;;;5061231;28;20258;-77
2022/12/07 00:33:14;;;;;;;11.82;8.77;;;4.90;99.90;;;;;;5059970;28;20235;-77
2022/12/07 00:36:00;;;;;;;11.27;8.15;;;4.90;99.90;;;;;;5058255;28;20322;-77
2022/12/07 00:38:46;;;;;;;13.68;9.05;;;4.90;99.90;;;;;;5057311;28;20208;-77
2022/12/07 00:41:31;;;;;;;13.23;9.82;;;5.00;99.90;;;;;;5067235;28;20680;-77
2022/12/07 00:44:18;;;;;;;11.93;8.82;;;5.00;99.90;;;;;;5073048;28;20219;-75
2022/12/07 00:47:04;;;;;;;12.95;8.60;;;5.00;99.90;;;;;;5077253;28;20275;-76
2022/12/07 00:49:50;;;;;;;12.38;8.38;;;5.00;99.90;;;;;;5067294;28;20216;-77
2022/12/07 00:52:35;;;;;;;16.90;9.38;;;5.10;99.90;;;;;;5065738;28;20713;-76
2022/12/07 00:55:21;;;;;;;15.88;8.30;;;5.20;99.90;;;;;;5069141;28;20219;-77
2022/12/07 00:58:07;;;;;;;12.80;9.25;;;5.20;99.90;;;;;;5087013;28;20207;-78
2022/12/07 01:00:54;;;;;;;11.82;8.77;;;5.20;99.90;;;;;;5071355;28;20224;-77
2022/12/07 01:03:39;;;;;;;14.82;8.65;;;5.20;99.90;;;;;;5072846;28;20204;-76
2022/12/07 01:06:26;;;;;;;10.88;8.63;;;5.20;99.90;;;;;;5067466;28;20285;-77
2022/12/07 01:09:11;;;;;;;14.50;9.50;;;5.10;99.90;;;;;;5079444;28;20284;-77
2022/12/07 01:11:57;;;;;;;12.52;8.25;;;5.10;99.90;;;;;;5070609;28;20317;-77
2022/12/07 01:14:43;;;;;;;10.57;7.90;;;5.20;99.90;;;;;;5071497;28;20247;-77
2022/12/07 01:17:30;;;;;;;14.05;8.75;;;5.20;99.90;;;;;;5068084;28;20200;-77
2022/12/07 01:20:16;;;;;;;12.50;8.57;;;5.30;99.90;;;;;;5074821;28;20737;-75
2022/12/07 01:23:02;;;;;;;12.38;8.27;;;5.20;99.90;;;;;;5083187;28;20238;-76
2022/12/07 01:25:55;;;;;;;15.13;8.52;;;5.30;99.90;;;;;;5081070;28;20228;-78
2022/12/07 01:28:40;;;;;;;12.90;8.70;;;5.30;99.90;;;;;;5076418;28;20282;-78
2022/12/07 01:31:27;;;;;;;15.30;8.93;;;5.30;99.90;;;;;;5064263;28;20651;-77
2022/12/07 01:34:15;;;;;;;13.35;9.15;;;5.30;99.90;;;;;;5082979;28;20267;-76
2022/12/07 01:37:00;;;;;;;10.02;7.80;;;5.20;99.90;;;;;;5082654;28;20542;-77
2022/12/07 01:39:48;;;;;;;14.95;9.05;;;4.90;99.90;;;;;;5078997;28;20212;-77
2022/12/07 01:42:34;;;;;;;14.30;8.98;;;4.90;99.90;;;;;;5070204;28;20195;-77
2022/12/07 01:45:44;;;;;;;12.68;8.48;;;4.90;99.90;;;;;;5083288;28;20226;-78
2022/12/07 01:48:34;;;;;;;14.25;9.60;;;5.00;99.90;;;;;;5076792;28;20269;-77
2022/12/07 01:51:21;;;;;;;11.60;8.40;;;4.80;99.90;;;;;;5080456;28;20284;-78
2022/12/07 01:54:08;;;;;;;14.55;8.23;;;4.70;99.90;;;;;;5082132;28;20215;-76
2022/12/07 01:56:57;;;;;;;14.50;9.70;;;4.60;99.90;;;;;;5075287;28;20204;-76
2022/12/07 01:59:43;;;;;;;14.30;9.32;;;4.60;99.90;;;;;;5078438;28;20276;-77
2022/12/07 02:02:32;;;;;;;17.75;9.55;;;4.60;99.90;;;;;;5076267;28;20203;-78
2022/12/07 02:05:19;;;;;;;15.02;9.02;;;4.60;99.90;;;;;;5086381;28;20335;-77
2022/12/07 02:08:06;;;;;;;14.18;9.30;;;4.70;99.90;;;;;;5075527;28;20208;-78
2022/12/07 02:10:52;;;;;;;15.05;9.38;;;4.70;99.90;;;;;;5073210;28;20207;-76
2022/12/07 02:13:40;;;;;;;10.98;8.20;;;4.80;99.90;;;;;;5075246;28;20199;-78
2022/12/07 02:16:39;;;;;;;12.40;8.50;;;4.90;99.90;;;;;;5087968;22;20318;-77
2022/12/07 02:20:03;;;;;;;15.35;8.63;;;5.00;99.90;;;;;;5063491;28;20669;-76
2022/12/07 02:23:05;;;;;;;15.57;8.98;;;5.00;99.90;;;;;;5059517;28;20312;-76
2022/12/07 02:26:08;;;;;;;13.85;9.43;;;4.80;99.90;;;;;;5072446;28;20230;-76
2022/12/07 02:29:14;;;;;;;12.57;9.60;;;4.80;99.90;;;;;;5077734;28;20334;-76
2022/12/07 02:32:08;;;;;;;13.75;9.50;;;4.70;99.90;;;;;;5079816;28;20565;-76
2022/12/07 02:35:01;;;;;;;17.67;8.88;;;4.70;99.90;;;;;;5080367;28;20231;-76
2022/12/07 02:37:58;;;;;;;13.25;9.35;;;4.70;99.90;;;;;;5070988;28;20226;-76
2022/12/07 02:40:49;;;;;;;16.90;9.57;;;4.60;99.90;;;;;;5063322;28;20211;-76
2022/12/07 02:43:39;;;;;;;15.65;11.00;;;4.60;99.90;;;;;;5079034;28;20247;-76
2022/12/07 02:46:30;;;;;;;16.88;10.63;;;4.60;99.90;;;;;;5086826;28;20736;-76
2022/12/07 02:49:17;;;;;;;13.00;8.85;;;4.60;99.90;;;;;;5073321;28;20196;-77
2022/12/07 02:52:02;;;;;;;14.23;9.50;;;4.70;99.90;;;;;;5080215;28;20215;-76
2022/12/07 02:54:48;;;;;;;12.30;8.90;;;4.70;99.90;;;;;;5087667;28;20243;-76
2022/12/07 02:57:59;;;;;;;16.65;10.45;;;4.80;99.90;;;;;;5082019;28;20282;-76
2022/12/07 03:00:53;;;;;;;12.60;8.52;;;4.90;99.90;;;;;;5068676;28;20544;-76
2022/12/07 03:03:43;;;;;;;14.80;9.10;;;4.90;99.90;;;;;;5082821;28;20319;-76
2022/12/07 03:06:32;;;;;;;14.60;9.05;;;4.90;99.90;;;;;;5064199;28;20228;-76
2022/12/07 03:09:28;;;;;;;13.40;10.05;;;4.80;99.90;;;;;;5077702;28;20266;-77
2022/12/07 03:12:17;;;;;;;13.90;9.45;;;4.90;99.90;;;;;;5077936;28;20224;-76
2022/12/07 03:15:09;;;;;;;14.50;10.00;;;4.90;99.90;;;;;;5078767;28;20321;-76
2022/12/07 03:17:58;;;;;;;16.27;10.10;;;4.80;99.90;;;;;;5077883;28;20205;-76
2022/12/07 03:20:48;;;;;;;17.95;10.73;;;4.70;99.90;;;;;;5073848;28;20255;-76
2022/12/07 03:23:38;;;;;;;15.25;10.40;;;4.70;99.90;;;;;;5066880;28;20199;-76
2022/12/07 03:26:30;;;;;;;12.45;8.88;;;4.60;99.90;;;;;;5067589;28;20227;-76
2022/12/07 03:29:21;;;;;;;11.65;7.88;;;4.60;99.90;;;;;;5083659;28;20250;-76
2022/12/07 03:32:12;;;;;;;14.07;9.05;;;4.50;99.90;;;;;;5064497;28;20216;-76
2022/12/07 03:35:04;;;;;;;14.10;8.98;;;4.70;99.90;;;;;;5079785;28;20228;-76
2022/12/07 03:37:56;;;;;;;14.32;9.43;;;4.70;99.90;;;;;;5074690;28;20323;-76
2022/12/07 03:40:47;;;;;;;14.85;9.18;;;4.70;99.90;;;;;;5082100;28;20198;-76
2022/12/07 03:43:33;;;;;;;14.23;9.13;;;4.80;99.90;;;;;;5075412;28;20231;-76
2022/12/07 03:46:26;;;;;;;17.08;11.05;;;4.90;99.90;;;;;;5072836;28;20302;-77
2022/12/07 03:49:18;;;;;;;13.85;9.43;;;5.00;99.90;;;;;;5080441;28;20219;-76
2022/12/07 03:52:19;;;;;;;16.35;11.52;;;4.70;99.90;;;;;;5058267;28;20213;-76
2022/12/07 03:55:12;;;;;;;15.63;10.05;;;4.70;99.90;;;;;;5084073;28;20238;-76
2022/12/07 03:58:03;;;;;;;13.88;9.20;;;4.70;99.90;;;;;;5073148;28;20204;-76
2022/12/07 04:00:49;;;;;;;15.40;9.43;;;4.80;99.90;;;;;;5068006;28;20252;-75
2022/12/07 04:03:35;;;;;;;12.95;9.82;;;4.90;99.90;;;;;;5079120;28;20200;-77
2022/12/07 04:06:21;;;;;;;15.90;9.90;;;4.80;99.90;;;;;;5084933;28;20674;-76
2022/12/07 04:09:06;;;;;;;16.02;10.75;;;4.80;99.90;;;;;;5070408;28;20563;-76
2022/12/07 04:11:53;;;;;;;12.23;10.07;;;4.80;99.90;;;;;;5079058;28;20234;-77
2022/12/07 04:14:39;;;;;;;16.85;10.63;;;4.90;99.90;;;;;;5077225;28;20220;-76
2022/12/07 04:17:24;;;;;;;14.15;9.80;;;5.00;99.90;;;;;;5085206;28;20204;-76
2022/12/07 04:20:11;;;;;;;15.65;10.75;;;4.90;99.90;;;;;;5069499;28;20223;-76
2022/12/07 04:22:57;;;;;;;16.80;11.52;;;4.90;99.90;;;;;;5081600;28;20200;-77
2022/12/07 04:25:42;;;;;;;14.85;8.95;;;5.00;99.90;;;;;;5073098;28;20258;-77
2022/12/07 04:28:29;;;;;;;14.60;9.95;;;5.10;99.90;;;;;;5067462;28;20192;-76
2022/12/07 04:31:15;;;;;;;13.32;9.50;;;5.20;99.90;;;;;;5080408;28;20331;-76
2022/12/07 04:34:00;;;;;;;12.85;9.93;;;5.10;99.90;;;;;;5084248;28;20231;-76
2022/12/07 04:36:47;;;;;;;16.33;10.23;;;5.10;99.90;;;;;;5080885;28;20703;-77
2022/12/07 04:39:34;;;;;;;19.05;11.25;;;5.10;99.90;;;;;;5078868;28;20204;-76
2022/12/07 04:42:19;;;;;;;15.95;9.82;;;5.20;99.90;;;;;;5076279;28;20274;-77
2022/12/07 04:45:07;;;;;;;20.52;11.70;;;5.10;99.90;;;;;;5081022;28;20223;-76
2022/12/07 04:47:53;;;;;;;16.38;10.77;;;5.00;99.90;;;;;;5079115;28;20301;-76
2022/12/07 04:50:39;;;;;;;13.75;9.10;;;5.10;99.90;;;;;;5074804;28;20208;-77
2022/12/07 04:53:24;;;;;;;16.48;11.32;;;5.10;99.90;;;;;;5062392;28;20232;-76
2022/12/07 04:56:10;;;;;;;16.08;11.10;;;5.20;99.90;;;;;;5070754;28;20355;-76
2022/12/07 04:58:56;;;;;;;16.05;10.98;;;5.20;99.90;;;;;;5067197;28;20569;-76
2022/12/07 05:01:44;;;;;;;13.85;10.07;;;5.10;99.90;;;;;;5061026;28;20203;-76
2022/12/07 05:04:29;;;;;;;13.50;10.18;;;5.10;99.90;;;;;;5061663;28;20200;-76
2022/12/07 05:07:15;;;;;;;17.15;10.88;;;5.00;99.90;;;;;;5070540;28;20591;-76
2022/12/07 05:10:01;;;;;;;13.98;9.75;;;5.10;99.90;;;;;;5077541;28;20203;-76
2022/12/07 05:12:47;;;;;;;14.38;9.75;;;5.10;99.90;;;;;;5052581;28;20212;-75
2022/12/07 05:15:32;;;;;;;17.92;11.40;;;5.00;99.90;;;;;;5076568;28;20592;-76
2022/12/07 05:18:19;;;;;;;14.52;10.57;;;5.00;99.90;;;;;;5072404;28;20204;-76
2022/12/07 05:21:05;;;;;;;14.90;10.05;;;5.10;99.90;;;;;;5081831;28;20196;-76
2022/12/07 05:23:51;;;;;;;15.73;10.70;;;5.10;99.90;;;;;;5080305;28;20294;-76
2022/12/07 05:26:36;;;;;;;13.65;9.35;;;5.10;99.90;;;;;;5073225;28;20342;-76
2022/12/07 05:29:22;;;;;;;15.45;10.25;;;5.20;99.90;;;;;;5065610;28;20204;-76
2022/12/07 05:32:07;;;;;;;11.82;9.00;;;5.20;99.90;;;;;;5078977;28;20449;-76
2022/12/07 05:34:54;;;;;;;16.10;11.68;;;5.20;99.90;;;;;;5074817;28;20228;-76
2022/12/07 05:37:40;;;;;;;14.02;8.85;;;5.20;99.90;;;;;;5072048;28;20242;-76
2022/12/07 05:40:26;;;;;;;15.20;10.52;;;5.10;99.90;;;;;;5076916;28;20221;-76
2022/12/07 05:43:12;;;;;;;14.73;9.20;;;5.10;99.90;;;;;;5078684;28;20281;-76
2022/12/07 05:45:58;;;;;;;13.77;9.82;;;5.10;99.90;;;;;;5083442;28;20227;-76
2022/12/07 05:48:43;;;;;;;13.52;9.23;;;5.10;99.90;;;;;;5053998;28;20262;-76
2022/12/07 05:51:30;;;;;;;13.32;9.20;;;5.10;99.90;;;;;;5075416;28;20204;-76
2022/12/07 05:54:16;;;;;;;12.75;9.05;;;5.20;99.90;;;;;;5080055;28;20231;-76
2022/12/07 05:57:01;;;;;;;11.93;9.15;;;5.10;99.90;;;;;;5076094;28;20204;-76
2022/12/07 05:59:46;;;;;;;18.60;9.02;;;5.10;99.90;;;;;;5067912;28;20204;-76
2022/12/07 06:02:31;;;;;;;10.55;8.55;;;5.10;99.90;;;;;;5069660;28;20557;-76
2022/12/07 06:05:17;;;;;;;13.07;9.20;;;5.10;99.90;;;;;;5079386;28;20239;-76
2022/12/07 06:08:04;;;;;;;11.50;8.65;;;5.20;99.90;;;;;;5075884;28;20211;-75
2022/12/07 06:12:33;;;;;;;14.98;9.15;;;5.20;99.90;;;;;;5079402;28;20567;-76
2022/12/07 06:13:56;;;;;;;13.13;9.30;;;5.10;99.90;;;;;;5076301;28;20514;-76
2022/12/07 06:16:42;;;;;;;12.10;9.05;;;5.10;99.90;;;;;;5069030;28;20293;-76
2022/12/07 06:19:27;;;;;;;12.73;8.60;;;5.20;99.90;;;;;;5073208;28;20221;-76
2022/12/07 06:22:13;;;;;;;11.55;8.85;;;5.20;99.90;;;;;;5085293;28;20198;-75
2022/12/07 06:25:01;;;;;;;13.13;8.57;;;5.20;99.90;;;;;;5082214;28;20297;-75
2022/12/07 06:27:47;;;;;;;26.08;10.00;;;5.20;99.90;;;;;;5067066;28;20204;-75
2022/12/07 06:30:32;;;;;;;11.95;8.65;;;5.20;99.90;;;;;;5068543;28;20251;-76
2022/12/07 06:33:18;;;;;;;12.45;9.00;;;5.10;99.90;;;;;;5066192;28;20227;-76
2022/12/07 06:36:03;;;;;;;18.30;9.07;;;5.10;99.90;;;;;;5080403;28;21132;-76
2022/12/07 06:38:49;;;;;;;21.85;9.25;;;5.20;99.90;;;;;;5068348;28;20286;-76
2022/12/07 06:41:36;;;;;;;13.68;9.25;;;5.20;99.90;;;;;;5066572;28;20256;-76
2022/12/07 06:44:23;;;;;;;14.43;10.05;;;5.20;99.90;;;;;;5079309;28;20239;-76
2022/12/07 06:47:09;;;;;;;15.50;10.55;;;5.10;99.90;;;;;;5064945;28;20204;-76
2022/12/07 06:49:54;;;;;;;13.23;9.10;;;5.00;99.90;;;;;;5077805;28;20711;-76
2022/12/07 06:52:40;;;;;;;20.25;10.00;;;5.00;99.90;;;;;;5057536;28;20242;-76
2022/12/07 06:55:26;;;;;;;15.18;9.93;;;5.10;99.90;;;;;;5067432;28;20788;-76
2022/12/07 06:58:13;;;;;;;13.55;9.63;;;5.10;99.90;;;;;;5069885;28;20204;-76
2022/12/07 07:00:58;;;;;;;17.05;9.18;;;5.20;99.90;;;;;;5071624;28;20331;-76
2022/12/07 07:03:44;;;;;;;12.98;9.52;;;5.20;99.90;;;;;;5079415;28;20207;-76
2022/12/07 07:06:29;;;;;;;15.57;9.55;;;5.20;99.90;;;;;;5054584;28;20224;-76
2022/12/07 07:09:15;;;;;;;12.63;8.80;;;5.30;99.90;;;;;;5066704;28;20674;-76
2022/12/07 07:12:01;;;;;;;15.07;8.75;;;5.40;99.90;;;;;;5076401;28;20476;-76
2022/12/07 07:14:48;;;;;;;10.98;8.52;;;5.30;99.90;;;;;;5075339;28;20251;-75
2022/12/07 07:17:33;;;;;;;12.90;8.70;;;5.30;99.90;;;;;;5068760;28;20199;-76
2022/12/07 07:20:19;;;;;;;12.43;8.38;;;5.30;99.90;;;;;;5070143;28;20208;-74
2022/12/07 07:23:05;;;;;;;11.70;8.32;;;5.30;99.90;;;;;;5079847;28;20211;-76
2022/12/07 07:25:51;;;;;;;12.45;9.50;;;5.30;99.90;;;;;;5058836;28;20220;-76
2022/12/07 07:28:36;;;;;;;14.23;9.10;;;5.30;99.90;;;;;;5079953;28;20199;-76
2022/12/07 07:31:23;;;;;;;12.07;8.73;;;5.30;99.90;;;;;;5070739;28;20204;-76
2022/12/07 07:34:08;;;;;;;12.82;9.30;;;5.40;99.90;;;;;;5063392;28;20216;-76
2022/12/07 07:36:54;;;;;;;19.92;9.20;;;5.40;99.90;;;;;;5074239;28;20208;-74
2022/12/07 07:39:40;;;;;;;15.60;9.55;;;5.50;99.90;;;;;;5064219;28;20779;-76
2022/12/07 07:42:25;;;;;;;10.95;7.95;;;5.50;99.90;;;;;;5058267;28;20204;-76
2022/12/07 07:45:11;;;;;;;13.98;9.25;;;5.30;99.90;;;;;;5086399;28;20219;-75
2022/12/07 07:47:58;;;;;;;14.27;10.55;;;5.30;99.90;;;;;;5081074;28;20207;-76
2022/12/07 07:50:43;;;;;;;16.75;11.45;;;5.30;99.90;;;;;;5084623;28;20207;-76
2022/12/07 07:53:29;;;;;;;14.10;9.70;;;5.30;99.90;;;;;;5070030;28;20212;-76
2022/12/07 07:56:15;;;;;;;14.95;10.98;;;5.40;99.90;;;;;;5075864;28;20712;-76
2022/12/07 07:59:00;;;;;;;15.80;9.70;;;5.50;99.90;;;;;;5067639;28;20274;-76
2022/12/07 08:01:46;;;;;;;16.20;11.43;;;5.50;99.90;;;;;;5065609;28;20575;-76
2022/12/07 08:04:33;;;;;;;16.35;10.90;;;5.50;99.90;;;;;;5065481;28;20188;-76
2022/12/07 08:07:19;;;;;;;15.50;10.65;;;5.50;99.90;;;;;;5062776;28;20242;-76
2022/12/07 08:10:06;;;;;;;13.82;11.02;;;5.50;99.90;;;;;;5072889;28;20208;-76
2022/12/07 08:15:54;;;;;;;13.85;10.38;;;5.50;99.90;;;;;;5081733;28;20238;-76
2022/12/07 08:18:41;;;;;;;14.15;9.90;;;5.50;99.90;;;;;;5079388;28;20195;-76
2022/12/07 08:21:28;;;;;;;15.77;10.00;;;5.50;99.90;;;;;;5069779;28;20455;-75
2022/12/07 08:24:14;;;;;;;13.07;9.77;;;5.50;99.90;;;;;;5069009;28;20204;-75
2022/12/07 08:27:00;;;;;;;14.38;10.05;;;5.50;99.90;;;;;;5068882;28;20605;-76
2022/12/07 08:29:46;;;;;;;15.68;11.02;;;5.60;99.90;;;;;;5070169;28;20322;-76
2022/12/07 08:32:31;;;;;;;14.75;11.00;;;5.50;99.90;;;;;;5074601;28;20204;-76
2022/12/07 08:35:17;;;;;;;13.60;9.95;;;5.50;99.90;;;;;;5088615;28;20294;-75
2022/12/07 08:38:04;;;;;;;16.38;11.15;;;5.50;99.90;;;;;;5068037;28;20204;-76
2022/12/07 08:40:55;;;;;;;18.60;11.60;;;5.50;99.90;;;;;;5060974;28;20204;-76
2022/12/07 08:43:41;;;;;;;16.05;11.45;;;5.60;99.90;;;;;;5072153;28;20262;-76
2022/12/07 08:46:33;;;;;;;20.17;12.23;;;5.50;99.90;;;;;;5069482;28;20265;-76
2022/12/07 08:49:22;;;;;;;14.15;10.35;;;5.50;99.90;;;;;;5070471;28;20262;-76
2022/12/07 08:52:07;;;;;;;18.55;11.15;;;5.50;99.90;;;;;;5073899;28;20208;-76
2022/12/07 08:54:54;;;;;;;16.60;11.60;;;5.40;99.90;;;;;;5074626;28;20227;-76
2022/12/07 08:57:42;;;;;;;16.52;11.70;;;5.40;99.90;;;;;;5072737;28;20750;-77
2022/12/07 09:00:28;;;;;;;16.70;11.10;;;5.50;99.90;;;;;;5071566;28;20266;-76
2022/12/07 09:03:13;;;;;;;24.63;12.80;;;5.50;99.90;;;;;;5084161;28;20424;-77
2022/12/07 09:06:00;;;;;;;15.85;11.90;;;5.60;99.90;;;;;;5082177;28;20243;-77
2022/12/07 09:08:49;;;;;;;18.55;10.90;;;5.70;99.90;;;;;;5070426;28;20200;-76
2022/12/07 09:11:35;;;;;;;15.40;11.30;;;5.80;99.90;;;;;;5069201;28;20204;-77
2022/12/07 09:14:21;;;;;;;17.45;12.48;;;5.80;99.90;;;;;;5071943;28;20219;-76
2022/12/07 09:17:08;;;;;;;17.85;12.07;;;5.80;99.90;;;;;;5071318;28;20264;-76
2022/12/07 09:19:53;;;;;;;17.65;12.43;;;5.80;99.90;;;;;;5065430;28;20204;-75
2022/12/07 09:22:39;;;;;;;16.75;11.43;;;5.90;99.90;;;;;;5063798;28;20205;-76
2022/12/07 09:25:24;;;;;;;16.00;11.90;;;5.80;99.90;;;;;;5074376;28;20219;-76
2022/12/07 09:28:11;;;;;;;17.45;12.60;;;5.80;99.90;;;;;;5063135;28;20216;-76
2022/12/07 09:30:57;;;;;;;18.30;12.10;;;5.80;99.90;;;;;;5069246;28;20279;-76
2022/12/07 09:33:42;;;;;;;22.17;13.38;;;5.70;99.90;;;;;;5076093;28;20215;-76
2022/12/07 09:36:29;;;;;;;20.08;12.05;;;5.70;99.90;;;;;;5066673;28;20235;-73
2022/12/07 09:39:15;;;;;;;16.33;11.15;;;5.70;99.90;;;;;;5073369;28;20208;-74
2022/12/07 09:42:05;;;;;;;20.10;13.48;;;5.80;99.90;;;;;;5059211;28;20200;-74
2022/12/07 09:44:52;;;;;;;17.55;13.07;;;5.80;99.90;;;;;;5057356;28;20720;-76
2022/12/07 09:47:37;;;;;;;18.67;12.43;;;5.60;99.90;;;;;;5063146;28;20221;-75
2022/12/07 09:50:27;;;;;;;16.77;12.65;;;5.60;99.90;;;;;;5084705;28;20203;-77
2022/12/07 09:53:16;;;;;;;16.88;11.68;;;5.70;99.90;;;;;;5083370;28;20206;-77
2022/12/07 09:56:03;;;;;;;17.80;13.02;;;5.70;99.90;;;;;;5076891;28;20232;-77
2022/12/07 09:58:49;;;;;;;17.17;11.73;;;5.80;99.90;;;;;;5086539;28;20282;-77
2022/12/07 10:01:36;;;;;;;20.75;13.20;;;5.60;99.90;;;;;;5074098;28;20674;-76
2022/12/07 10:04:24;;;;;;;15.48;11.48;;;5.60;99.90;;;;;;5086084;28;20258;-76
2022/12/07 10:07:10;;;;;;;18.15;12.02;;;5.60;99.90;;;;;;5074054;28;20295;-76
2022/12/07 10:09:56;;;;;;;17.80;12.30;;;5.50;99.90;;;;;;5081698;28;20227;-77
2022/12/07 10:12:58;;;;;;;17.73;12.60;;;5.60;99.90;;;;;;5077654;28;20243;-77
2022/12/07 10:15:51;;;;;;;18.90;12.05;;;5.60;99.90;;;;;;5069425;28;20239;-77
2022/12/07 10:18:41;;;;;;;18.45;12.43;;;5.60;99.90;;;;;;5058916;28;20204;-76
2022/12/07 10:21:27;;;;;;;15.77;11.50;;;5.40;99.90;;;;;;5081526;28;20204;-77
2022/12/07 10:24:15;;;;;;;23.27;14.15;;;5.50;99.90;;;;;;5075097;28;20220;-77
2022/12/07 10:27:01;;;;;;;20.73;13.07;;;5.60;99.90;;;;;;5071615;28;20212;-76
2022/12/07 10:29:50;;;;;;;17.58;11.60;;;5.60;99.90;;;;;;5074630;28;20206;-77
2022/12/07 10:32:37;;;;;;;18.67;12.95;;;5.70;99.90;;;;;;5073282;28;20212;-77
2022/12/07 10:35:27;;;;;;;18.30;13.75;;;5.70;99.90;;;;;;5084341;28;20226;-77
2022/12/07 10:38:18;;;;;;;20.92;12.15;;;5.70;99.90;;;;;;5077019;28;20200;-77
2022/12/07 10:41:06;;;;;;;20.80;12.25;;;5.70;99.90;;;;;;5061919;28;20701;-76
2022/12/07 10:43:54;;;;;;;17.23;11.93;;;5.80;99.90;;;;;;5052737;28;20200;-76
2022/12/07 10:47:01;;;;;;;15.95;11.55;;;5.80;99.90;;;;;;5053209;28;20278;-75
2022/12/07 10:50:19;;;;;;;16.88;12.25;;;5.80;99.90;;;;;;5054085;28;20204;-76
2022/12/07 10:53:32;;;;;;;19.00;11.95;;;5.80;99.90;;;;;;5048579;28;20220;-74
2022/12/07 10:56:54;;;;;;;17.83;11.97;;;5.80;99.90;;;;;;5057963;28;20231;-76
2022/12/07 11:00:01;;;;;;;20.13;13.32;;;5.70;99.90;;;;;;5030222;28;20520;-76
2022/12/07 11:03:17;;;;;;;20.80;13.48;;;5.70;99.90;;;;;;5059235;28;20613;-76
2022/12/07 11:06:16;;;;;;;21.17;13.70;;;5.60;99.90;;;;;;5055266;28;20217;-76
2022/12/07 11:09:17;;;;;;;17.95;12.65;;;5.60;99.90;;;;;;5061963;28;20204;-76
2022/12/07 11:12:11;;;;;;;21.33;13.02;;;5.60;99.90;;;;;;5075222;28;20196;-76
2022/12/07 11:15:02;;;;;;;21.98;13.10;;;5.70;99.90;;;;;;5069230;28;20233;-76
2022/12/07 11:17:55;;;;;;;19.75;13.23;;;5.70;99.90;;;;;;5060488;28;20299;-75
2022/12/07 11:20:46;;;;;;;20.88;12.70;;;5.80;99.90;;;;;;5075829;28;20203;-76
2022/12/07 11:23:45;;;;;;;23.65;13.65;;;5.80;99.90;;;;;;5061603;28;20724;-75
2022/12/07 11:26:57;;;;;;;19.95;12.63;;;6.00;99.90;;;;;;5063190;28;20220;-76
2022/12/07 11:29:57;;;;;;;20.05;12.43;;;6.00;99.90;;;;;;5060247;28;20883;-77
2022/12/07 11:33:02;;;;;;;21.52;13.85;;;6.10;99.90;;;;;;5083707;28;20675;-76
2022/12/07 11:36:01;;;;;;;21.38;12.57;;;6.10;99.90;;;;;;5080682;28;20282;-76
2022/12/07 11:38:51;;;;;;;20.77;13.80;;;6.20;99.90;;;;;;5068915;28;20483;-77
2022/12/07 11:41:42;;;;;;;22.67;13.80;;;6.20;99.90;;;;;;5082631;28;20211;-76
2022/12/07 11:44:35;;;;;;;17.65;12.38;;;6.20;99.90;;;;;;5077406;28;20282;-76
2022/12/07 11:47:27;;;;;;;21.38;13.50;;;6.10;99.90;;;;;;5076498;28;20281;-78
2022/12/07 11:50:27;;;;;;;22.05;13.68;;;6.20;99.90;;;;;;5092144;28;20199;-77
2022/12/07 11:53:18;;;;;;;20.63;13.73;;;6.30;99.90;;;;;;5092578;28;20229;-76
2022/12/07 11:56:11;;;;;;;24.85;13.80;;;6.40;99.90;;;;;;5083256;28;20317;-78
2022/12/07 11:59:05;;;;;;;24.38;13.40;;;6.50;99.90;;;;;;5077854;28;20204;-76
2022/12/07 12:01:55;;;;;;;21.00;13.20;;;6.50;99.90;;;;;;5080713;28;20246;-77
2022/12/07 12:04:52;;;;;;;19.60;13.00;;;6.60;99.90;;;;;;5079435;28;20295;-77
2022/12/07 12:07:38;;;;;;;16.73;12.18;;;6.60;99.90;;;;;;5072725;28;20203;-77
2022/12/07 12:10:35;;;;;;;21.15;11.70;;;6.50;99.90;;;;;;5076806;28;20266;-76
2022/12/07 12:13:47;;;;;;;18.00;12.73;;;6.30;99.90;;;;;;5092333;28;20898;-77
2022/12/07 12:17:01;;;;;;;19.80;12.75;;;6.30;99.90;;;;;;5057894;28;20310;-78
2022/12/07 12:20:00;;;;;;;21.88;13.10;;;6.20;99.90;;;;;;5058978;28;20258;-77
2022/12/07 12:22:49;;;;;;;20.05;13.32;;;6.30;99.90;;;;;;5068305;28;20674;-77
2022/12/07 12:25:42;;;;;;;17.75;12.30;;;6.20;99.90;;;;;;5072927;28;20224;-77
2022/12/07 12:28:31;;;;;;;15.45;11.27;;;6.30;99.90;;;;;;5059156;28;20201;-77
2022/12/07 12:31:29;;;;;;;19.77;13.20;;;6.40;99.90;;;;;;5068146;28;20227;-77
2022/12/07 12:34:41;;;;;;;17.55;11.25;;;6.40;99.90;;;;;;5076333;28;20220;-77
2022/12/07 12:37:44;;;;;;;18.08;11.88;;;6.50;99.90;;;;;;5069055;28;20200;-77
2022/12/07 12:40:41;;;;;;;22.35;14.85;;;6.50;99.90;;;;;;5065679;28;20227;-77
2022/12/07 12:43:49;;;;;;;16.40;11.32;;;6.50;99.90;;;;;;5065520;28;20693;-75
2022/12/07 12:46:51;;;;;;;16.15;11.52;;;6.50;99.90;;;;;;5060643;28;20337;-77
2022/12/07 12:49:42;;;;;;;20.07;14.40;;;6.60;99.90;;;;;;5069459;28;20208;-77
2022/12/07 12:52:55;;;;;;;41.90;21.70;;;6.50;99.90;;;;;;5069876;28;20455;-76
2022/12/07 12:56:15;;;;;;;26.50;15.30;;;6.50;99.90;;;;;;5061066;28;20700;-78
2022/12/07 12:59:25;;;;;;;26.35;13.40;;;6.30;99.90;;;;;;5067410;28;20203;-78
2022/12/07 13:02:22;;;;;;;15.93;11.88;;;6.40;99.90;;;;;;5068118;28;20680;-77
2022/12/07 13:05:20;;;;;;;19.17;11.95;;;6.40;99.90;;;;;;5064762;28;20271;-78
2022/12/07 13:08:18;;;;;;;23.50;13.40;;;6.40;99.90;;;;;;5066280;28;20586;-76
2022/12/07 13:11:20;;;;;;;21.17;13.33;;;6.40;99.90;;;;;;5062233;28;20200;-76
2022/12/07 13:14:44;;;;;;;17.55;12.02;;;6.40;99.90;;;;;;5067176;28;20813;-75
2022/12/07 13:18:00;;;;;;;17.10;11.95;;;6.40;99.90;;;;;;5065906;28;20199;-78
2022/12/07 13:20:57;;;;;;;17.40;11.73;;;6.40;99.90;;;;;;5066919;28;20358;-76
2022/12/07 13:23:56;;;;;;;19.83;12.48;;;6.40;99.90;;;;;;5067690;28;20231;-76
2022/12/07 13:26:44;;;;;;;17.63;11.50;;;6.50;99.90;;;;;;5063114;28;20195;-76
2022/12/07 13:29:38;;;;;;;24.42;11.90;;;6.50;99.90;;;;;;5074628;28;20204;-76
2022/12/07 13:32:25;;;;;;;18.70;12.80;;;6.60;99.90;;;;;;5071709;28;20294;-76
2022/12/07 13:35:35;;;;;;;18.43;12.50;;;6.60;99.90;;;;;;5069676;28;20488;-76
2022/12/07 13:38:28;;;;;;;21.92;12.40;;;6.70;99.90;;;;;;5073272;28;20597;-77
2022/12/07 13:41:16;;;;;;;15.20;10.98;;;6.70;99.90;;;;;;5069678;28;20204;-75
2022/12/07 13:44:03;;;;;;;20.30;12.95;;;6.70;99.90;;;;;;5063429;28;20216;-77
2022/12/07 13:46:55;;;;;;;17.60;11.23;;;6.60;99.90;;;;;;5062226;28;20204;-77
2022/12/07 13:49:48;;;;;;;18.73;11.50;;;6.60;99.90;;;;;;5066674;28;20199;-76
2022/12/07 13:52:34;;;;;;;16.40;10.55;;;6.60;99.90;;;;;;5073053;28;20196;-78
2022/12/07 13:55:21;;;;;;;19.98;12.65;;;6.70;99.90;;;;;;5067645;28;20236;-77
2022/12/07 13:58:09;;;;;;;16.77;10.73;;;6.60;99.90;;;;;;5066095;28;20212;-75
2022/12/07 14:00:54;;;;;;;14.77;9.85;;;6.70;99.90;;;;;;5058610;28;20254;-75
2022/12/07 14:03:41;;;;;;;22.17;10.88;;;6.70;99.90;;;;;;5060368;28;20205;-76
2022/12/07 14:06:28;;;;;;;18.52;9.50;;;6.60;99.90;;;;;;5059649;28;20343;-76
2022/12/07 14:09:20;;;;;;;22.65;14.25;;;6.60;99.90;;;;;;5069753;28;20208;-76
2022/12/07 14:12:07;;;;;;;18.60;12.18;;;6.60;99.90;;;;;;5066966;28;20732;-78
2022/12/07 14:14:54;;;;;;;18.60;10.57;;;6.60;99.90;;;;;;5065427;28;20232;-75
2022/12/07 14:17:51;;;;;;;19.00;10.85;;;6.50;99.90;;;;;;5067684;28;22019;-76
2022/12/07 14:20:39;;;;;;;14.90;11.18;;;6.50;99.90;;;;;;5068471;28;20207;-76
2022/12/07 14:23:26;;;;;;;19.63;10.35;;;6.50;99.90;;;;;;5068071;28;20209;-76
2022/12/07 14:26:14;;;;;;;15.25;10.90;;;6.40;99.90;;;;;;5066759;28;20224;-76
2022/12/07 14:29:23;;;;;;;18.20;9.95;;;6.30;99.90;;;;;;5057910;28;20201;-76
2022/12/07 14:32:27;;;;;;;15.25;9.95;;;6.30;99.90;;;;;;5070772;28;20200;-76
2022/12/07 14:35:15;;;;;;;16.67;11.53;;;6.40;99.90;;;;;;5067299;28;20236;-76
2022/12/07 14:38:01;;;;;;;14.93;10.07;;;6.40;99.90;;;;;;5070967;28;20497;-76
2022/12/07 14:40:46;;;;;;;13.45;9.52;;;6.50;99.90;;;;;;5063457;28;20518;-76
2022/12/07 14:43:31;;;;;;;17.58;11.45;;;6.40;99.90;;;;;;5059629;28;20205;-76